Terminal Aerodrome Forecast
Issued by NWS

Home | Current Version | Previous Version | Text Only | Print | Product List | Glossary On
Versions: 1 2 3 4 5 6 7 8 9 10 11 12 13 14 15 16 17
000
FTUS46 KPDT 250500
TAFDLS
TAF
KDLS 250520Z 2506/2606 28008KT P6SM VCSH SCT080 BKN100
     FM250900 30007KT P6SM SCT090 BKN110
     FM251200 30006KT P6SM BKN100 BKN150
     FM252000 30010G20KT P6SM BKN070 BKN090=

USA.gov is the U.S. government's official web portal to all federal, state and local government web resources and services.